createdAt,value
2022-09-01T00:00:02.558Z,15.3
2022-09-01T00:01:02.137Z,15.3
2022-09-01T00:02:02.086Z,15.3
2022-09-01T00:03:02.166Z,15.2
2022-09-01T00:04:02.179Z,15.2
2022-09-01T00:05:02.260Z,15.1
2022-09-01T00:06:02.059Z,15.1
2022-09-01T00:07:02.056Z,15.1
2022-09-01T00:08:01.415Z,15.2
2022-09-01T00:09:02.385Z,15.2
2022-09-01T00:10:02.205Z,15.2
2022-09-01T00:11:02.280Z,14.9
2022-09-01T00:12:02.103Z,14.9
2022-09-01T00:13:02.075Z,14.9
2022-09-01T00:14:01.895Z,15.1
2022-09-01T00:15:01.821Z,15.2
2022-09-01T00:16:02.230Z,15.1
2022-09-01T00:17:02.349Z,15.1
2022-09-01T00:18:02.162Z,15.2
2022-09-01T00:19:02.169Z,15.1
2022-09-01T00:20:01.960Z,15
2022-09-01T00:21:01.860Z,14.9
2022-09-01T00:22:01.850Z,15
2022-09-01T00:23:01.655Z,14.9
2022-09-01T00:24:01.586Z,15
2022-09-01T00:25:01.369Z,14.9
2022-09-01T00:26:02.448Z,14.9
2022-09-01T00:27:02.297Z,14.8
2022-09-01T00:28:02.238Z,14.8
2022-09-01T00:29:02.020Z,14.8
2022-09-01T00:30:02.044Z,14.9
2022-09-01T00:31:02.061Z,15
2022-09-01T00:32:02.148Z,14.8
2022-09-01T00:33:02.133Z,14.8
2022-09-01T00:34:01.943Z,14.8
2022-09-01T00:35:01.865Z,14.8
2022-09-01T00:36:01.855Z,14.9
2022-09-01T00:37:01.741Z,14.8
2022-09-01T00:38:01.680Z,14.9
2022-09-01T00:39:01.603Z,14.8
2022-09-01T00:40:01.378Z,14.8
2022-09-01T00:41:02.385Z,14.7
2022-09-01T00:42:02.235Z,14.8
2022-09-01T00:43:02.251Z,14.8
2022-09-01T00:44:02.075Z,14.8
2022-09-01T00:45:02.353Z,14.9
2022-09-01T00:46:01.985Z,15
2022-09-01T00:47:01.981Z,14.9
2022-09-01T00:48:01.986Z,15
2022-09-01T00:49:02.010Z,15.1
2022-09-01T00:50:01.909Z,15.1
2022-09-01T00:51:01.819Z,15.1
2022-09-01T00:52:01.674Z,15.1
2022-09-01T00:53:02.227Z,15
2022-09-01T00:54:02.226Z,15
2022-09-01T00:55:02.062Z,15.1
2022-09-01T00:56:02.076Z,15.1
2022-09-01T00:57:01.860Z,15.1
2022-09-01T00:58:01.859Z,15.1
2022-09-01T00:59:01.813Z,15
2022-09-01T01:00:01.583Z,15
2022-09-01T01:01:01.740Z,14.9
2022-09-01T01:02:01.774Z,15
2022-09-01T01:03:01.681Z,14.9
2022-09-01T01:04:01.863Z,14.9
2022-09-01T01:05:01.812Z,14.9
2022-09-01T01:06:01.715Z,14.9
2022-09-01T01:07:01.631Z,14.9
2022-09-01T01:08:01.625Z,14.9
2022-09-01T01:09:01.552Z,14.9
2022-09-01T01:10:01.357Z,14.9
2022-09-01T01:11:02.375Z,14.9
2022-09-01T01:12:02.198Z,14.8
2022-09-01T01:13:02.159Z,14.7
2022-09-01T01:14:01.996Z,14.6
2022-09-01T01:15:01.917Z,14.7
2022-09-01T01:16:01.885Z,14.7
2022-09-01T01:17:01.889Z,14.8
2022-09-01T01:18:01.833Z,14.9
2022-09-01T01:19:01.765Z,14.9
2022-09-01T01:20:01.742Z,14.7
2022-09-01T01:21:01.563Z,14.6
2022-09-01T01:22:01.596Z,14.6
2022-09-01T01:23:01.433Z,14.6
2022-09-01T01:24:02.406Z,14.7
2022-09-01T01:25:02.225Z,14.8
2022-09-01T01:26:02.189Z,14.8
2022-09-01T01:27:02.000Z,14.6
2022-09-01T01:28:01.845Z,14.7
2022-09-01T01:29:01.828Z,14.8
2022-09-01T01:30:01.653Z,14.7
2022-09-01T01:31:01.972Z,14.7
2022-09-01T01:32:02.091Z,14.7
2022-09-01T01:33:01.902Z,14.6
2022-09-01T01:34:01.801Z,14.7
2022-09-01T01:35:01.782Z,14.6
2022-09-01T01:36:01.620Z,14.6
2022-09-01T01:37:01.554Z,14.6
2022-09-01T01:38:01.384Z,14.6
2022-09-01T01:39:02.363Z,14.6
2022-09-01T01:40:02.212Z,14.6
2022-09-01T01:41:02.282Z,14.6
2022-09-01T01:42:02.112Z,14.6
2022-09-01T01:43:02.105Z,14.6
2022-09-01T01:44:01.927Z,14.6
2022-09-01T01:45:01.895Z,14.5
2022-09-01T01:46:01.789Z,14.6
2022-09-01T01:47:02.159Z,14.6
2022-09-01T01:48:02.029Z,14.5
2022-09-01T01:49:01.933Z,14.4
2022-09-01T01:50:01.857Z,14.5
2022-09-01T01:51:01.705Z,14.5
2022-09-01T01:52:01.678Z,14.4
2022-09-01T01:53:01.448Z,14.5
2022-09-01T01:54:02.417Z,14.4
2022-09-01T01:55:05.059Z,14.4
2022-09-01T01:56:02.190Z,14.4
2022-09-01T01:57:02.167Z,14.3
2022-09-01T01:58:01.992Z,14.2
2022-09-01T01:59:01.889Z,14.2
2022-09-01T02:00:01.886Z,14.3
2022-09-01T02:01:01.436Z,14.3
2022-09-01T02:02:01.570Z,14.4
2022-09-01T02:03:01.602Z,14.4
2022-09-01T02:04:01.530Z,14.3
2022-09-01T02:05:01.296Z,14.3
2022-09-01T02:06:02.316Z,14.2
2022-09-01T02:07:02.131Z,14.2
2022-09-01T02:08:02.066Z,14.3
2022-09-01T02:09:01.950Z,14.4
2022-09-01T02:10:01.848Z,14.3
2022-09-01T02:11:01.841Z,14.4
2022-09-01T02:12:02.105Z,14.5
2022-09-01T02:13:02.141Z,14.4
2022-09-01T02:14:02.119Z,14.5
2022-09-01T02:15:01.962Z,14.3
2022-09-01T02:16:01.632Z,14.3
2022-09-01T02:17:01.628Z,14.3
2022-09-01T02:18:03.251Z,14.3
2022-09-01T02:19:01.394Z,14.3
2022-09-01T02:20:02.357Z,14.4
2022-09-01T02:21:02.198Z,14.4
2022-09-01T02:22:02.130Z,14.3
2022-09-01T02:23:02.162Z,14.3
2022-09-01T02:24:02.043Z,14.2
2022-09-01T02:25:02.031Z,14.2
2022-09-01T02:26:16.374Z,14.2
2022-09-01T02:27:01.630Z,14.2
2022-09-01T02:28:01.551Z,14.2
2022-09-01T02:29:01.387Z,14.2
2022-09-01T02:30:02.333Z,14.3
2022-09-01T02:31:02.320Z,14.2
2022-09-01T02:32:01.582Z,14
2022-09-01T02:33:02.096Z,14
2022-09-01T02:34:02.020Z,14.1
2022-09-01T02:35:01.973Z,14.1
2022-09-01T02:36:01.800Z,14.1
2022-09-01T02:37:01.693Z,14.1
2022-09-01T02:38:01.658Z,14.1
2022-09-01T02:39:01.452Z,14.1
2022-09-01T02:40:02.542Z,14.2
2022-09-01T02:41:01.487Z,14.2
2022-09-01T02:42:01.560Z,14.3
2022-09-01T02:43:01.390Z,14.3
2022-09-01T02:44:02.651Z,14.2
2022-09-01T02:45:01.991Z,14.3
2022-09-01T02:46:01.872Z,14.1
2022-09-01T02:47:01.581Z,14.2
2022-09-01T02:48:01.839Z,14.2
2022-09-01T02:49:02.306Z,14.2
2022-09-01T02:50:02.350Z,14.2
2022-09-01T02:51:02.254Z,14.2
2022-09-01T02:52:02.218Z,14.1
2022-09-01T02:53:03.886Z,14
2022-09-01T02:54:01.987Z,14.1
2022-09-01T02:55:01.902Z,14.1
2022-09-01T02:56:01.766Z,14.1
2022-09-01T02:57:01.718Z,14
2022-09-01T02:58:01.624Z,14.1
2022-09-01T02:59:01.419Z,14
2022-09-01T03:00:02.407Z,14.1
2022-09-01T03:01:02.871Z,14
2022-09-01T03:02:02.099Z,14.2
2022-09-01T03:03:02.058Z,14.2
2022-09-01T03:04:01.879Z,14.1
2022-09-01T03:05:01.928Z,14.1
2022-09-01T03:06:02.279Z,14.1
2022-09-01T03:07:02.078Z,14
2022-09-01T03:08:02.025Z,14
2022-09-01T03:09:01.843Z,14
2022-09-01T03:10:01.791Z,14.1
2022-09-01T03:11:01.754Z,14
2022-09-01T03:12:01.550Z,14
2022-09-01T03:13:01.513Z,14.1
2022-09-01T03:14:02.435Z,14.1
2022-09-01T03:15:02.262Z,14.2
2022-09-01T03:16:02.053Z,14.3
2022-09-01T03:17:02.106Z,14.1
2022-09-01T03:18:02.114Z,14
2022-09-01T03:19:02.039Z,14.1
2022-09-01T03:20:02.023Z,14
2022-09-01T03:21:01.850Z,14.1
2022-09-01T03:22:01.871Z,13.9
2022-09-01T03:23:01.825Z,14.1
2022-09-01T03:24:01.591Z,14.1
2022-09-01T03:25:01.490Z,13.9
2022-09-01T03:26:02.408Z,14
2022-09-01T03:27:02.222Z,14
2022-09-01T03:28:03.083Z,14.1
2022-09-01T03:29:01.950Z,14
2022-09-01T03:30:01.952Z,14.1
2022-09-01T03:31:01.956Z,14.1
2022-09-01T03:32:01.952Z,14.2
2022-09-01T03:33:02.133Z,14.1
2022-09-01T03:34:01.963Z,13.9
2022-09-01T03:35:01.827Z,14.1
2022-09-01T03:36:01.814Z,14.1
2022-09-01T03:37:01.628Z,14.1
2022-09-01T03:38:01.568Z,13.9
2022-09-01T03:39:01.423Z,13.8
2022-09-01T03:40:02.416Z,13.8
2022-09-01T03:41:01.398Z,13.8
2022-09-01T03:42:02.373Z,13.9
2022-09-01T03:43:02.226Z,13.9
2022-09-01T03:44:02.142Z,13.8
2022-09-01T03:45:01.958Z,13.8
2022-09-01T03:46:01.912Z,13.7
2022-09-01T03:47:02.228Z,13.7
2022-09-01T03:48:02.375Z,13.7
2022-09-01T03:49:02.201Z,13.7
2022-09-01T03:50:02.159Z,13.6
2022-09-01T03:51:01.955Z,13.8
2022-09-01T03:52:01.859Z,13.7
2022-09-01T03:53:01.839Z,13.6
2022-09-01T03:54:01.606Z,13.7
2022-09-01T03:55:01.667Z,13.7
2022-09-01T03:56:01.456Z,13.6
2022-09-01T03:57:02.437Z,13.6
2022-09-01T03:58:01.974Z,13.7
2022-09-01T03:59:01.924Z,13.6
2022-09-01T04:00:01.692Z,13.7
2022-09-01T04:01:01.742Z,13.7
2022-09-01T04:02:02.054Z,13.6
2022-09-01T04:03:01.992Z,13.6
2022-09-01T04:04:01.907Z,13.7
2022-09-01T04:05:04.352Z,13.6
2022-09-01T04:06:02.232Z,13.7
2022-09-01T04:07:02.040Z,13.8
2022-09-01T04:08:02.030Z,13.9
2022-09-01T04:09:01.869Z,13.8
2022-09-01T04:10:01.797Z,13.6
2022-09-01T04:11:01.742Z,13.7
2022-09-01T04:12:01.531Z,13.7
2022-09-01T04:13:01.448Z,13.8
2022-09-01T04:14:02.388Z,13.8
2022-09-01T04:15:02.223Z,13.7
2022-09-01T04:16:01.475Z,13.6
2022-09-01T04:17:01.472Z,13.6
2022-09-01T04:18:02.397Z,13.5
2022-09-01T04:19:02.227Z,13.7
2022-09-01T04:20:02.187Z,13.5
2022-09-01T04:21:02.001Z,13.8
2022-09-01T04:22:01.970Z,13.7
2022-09-01T04:23:01.905Z,13.8
2022-09-01T04:24:01.702Z,13.7
2022-09-01T04:25:01.625Z,13.6
2022-09-01T04:26:01.432Z,13.6
2022-09-01T04:27:02.592Z,13.7
2022-09-01T04:28:01.508Z,13.7
2022-09-01T04:29:01.471Z,13.8
2022-09-01T04:30:02.374Z,13.7
2022-09-01T04:31:02.291Z,13.7
2022-09-01T04:32:02.493Z,13.7
2022-09-01T04:33:01.663Z,13.6
2022-09-01T04:34:01.603Z,13.8
2022-09-01T04:35:01.428Z,13.7
2022-09-01T04:36:02.366Z,13.7
2022-09-01T04:37:02.179Z,13.7
2022-09-01T04:38:01.773Z,13.6
2022-09-01T04:39:01.587Z,13.6
2022-09-01T04:40:01.606Z,13.6
2022-09-01T04:41:01.644Z,13.7
2022-09-01T04:42:01.587Z,13.6
2022-09-01T04:43:01.399Z,13.6
2022-09-01T04:44:02.405Z,13.8
2022-09-01T04:45:10.642Z,13.7
2022-09-01T04:46:02.343Z,13.9
2022-09-01T04:47:02.372Z,13.8
2022-09-01T04:48:02.214Z,14
2022-09-01T04:49:02.231Z,13.9
2022-09-01T04:50:02.075Z,13.8
2022-09-01T04:51:02.054Z,13.9
2022-09-01T04:52:01.867Z,13.8
2022-09-01T04:53:01.770Z,13.8
2022-09-01T04:54:01.695Z,13.8
2022-09-01T04:55:01.472Z,13.7
2022-09-01T04:56:01.456Z,13.7
2022-09-01T04:57:02.376Z,13.7
2022-09-01T04:58:02.216Z,13.8
2022-09-01T04:59:01.393Z,13.8
2022-09-01T05:00:02.353Z,14
2022-09-01T05:01:02.007Z,13.8
2022-09-01T05:02:02.356Z,13.7
2022-09-01T05:03:01.375Z,13.7
2022-09-01T05:04:03.872Z,14
2022-09-01T05:05:02.021Z,13.9
2022-09-01T05:06:02.026Z,14
2022-09-01T05:07:01.929Z,13.8
2022-09-01T05:08:01.841Z,14.1
2022-09-01T05:09:01.809Z,14
2022-09-01T05:10:01.662Z,13.8
2022-09-01T05:11:01.701Z,14.1
2022-09-01T05:12:01.688Z,14
2022-09-01T05:13:01.561Z,14.1
2022-09-01T05:14:01.444Z,14.1
2022-09-01T05:15:02.081Z,14.1
2022-09-01T05:16:02.105Z,14
2022-09-01T05:17:02.310Z,14.1
2022-09-01T05:18:02.331Z,14.2
2022-09-01T05:19:02.169Z,13.9
2022-09-01T05:20:02.132Z,14.1
2022-09-01T05:21:01.940Z,14.1
2022-09-01T05:22:01.847Z,14.3
2022-09-01T05:23:01.760Z,14.2
2022-09-01T05:24:01.700Z,14.2
2022-09-01T05:25:01.529Z,14.2
2022-09-01T05:26:01.380Z,14.2
2022-09-01T05:27:02.370Z,14.3
2022-09-01T05:28:02.189Z,14.3
2022-09-01T05:29:02.153Z,14.3
2022-09-01T05:30:02.012Z,14.3
2022-09-01T05:31:02.165Z,14.2
2022-09-01T05:32:02.202Z,14.3
2022-09-01T05:33:02.197Z,14.4
2022-09-01T05:34:01.967Z,14.3
2022-09-01T05:35:01.998Z,14.4
2022-09-01T05:36:01.841Z,14.2
2022-09-01T05:37:01.683Z,14.3
2022-09-01T05:38:01.556Z,14.3
2022-09-01T05:39:01.382Z,14.5
2022-09-01T05:40:02.419Z,14.3
2022-09-01T05:41:01.494Z,14.3
2022-09-01T05:42:01.495Z,14.4
2022-09-01T05:43:02.423Z,14.4
2022-09-01T05:44:02.254Z,14.5
2022-09-01T05:45:02.266Z,14.6
2022-09-01T05:46:07.445Z,14.4
2022-09-01T05:47:01.551Z,14.4
2022-09-01T05:48:01.680Z,14.4
2022-09-01T05:49:01.527Z,14.3
2022-09-01T05:50:01.430Z,14.4
2022-09-01T05:51:02.410Z,14.5
2022-09-01T05:52:02.254Z,14.4
2022-09-01T05:53:01.989Z,14.4
2022-09-01T05:54:01.487Z,14.5
2022-09-01T05:55:02.312Z,14.7
2022-09-01T05:56:02.077Z,14.5
2022-09-01T05:57:17.731Z,14.5
2022-09-01T05:58:01.813Z,14.4
2022-09-01T05:59:26.431Z,14.5
2022-09-01T06:00:01.708Z,14.7
2022-09-01T06:01:01.639Z,14.8
2022-09-01T06:02:01.725Z,14.7
2022-09-01T06:03:02.378Z,14.8
2022-09-01T06:04:01.649Z,15
2022-09-01T06:05:01.443Z,15
2022-09-01T06:06:02.435Z,15
2022-09-01T06:07:06.353Z,15.1
2022-09-01T06:08:02.084Z,15.3
2022-09-01T06:09:02.086Z,15.2
2022-09-01T06:10:01.882Z,15.4
2022-09-01T06:11:01.765Z,15.4
2022-09-01T06:12:01.699Z,15.5
2022-09-01T06:13:01.507Z,15.5
2022-09-01T06:14:01.999Z,15.6
2022-09-01T06:15:02.075Z,15.6
2022-09-01T06:16:02.084Z,15.6
2022-09-01T06:17:02.317Z,15.6
2022-09-01T06:18:02.147Z,15.5
2022-09-01T06:19:02.129Z,15.8
2022-09-01T06:20:01.943Z,16
2022-09-01T06:21:01.934Z,16
2022-09-01T06:22:01.904Z,15.8
2022-09-01T06:23:01.757Z,16.1
2022-09-01T06:24:01.676Z,16.1
2022-09-01T06:25:02.593Z,16.2
2022-09-01T06:26:01.965Z,16.4
2022-09-01T06:27:01.934Z,16.5
2022-09-01T06:28:01.896Z,16.6
2022-09-01T06:29:01.669Z,16.4
2022-09-01T06:30:01.602Z,16.7
2022-09-01T06:31:01.595Z,16.6
2022-09-01T06:32:01.482Z,16.7
2022-09-01T06:33:01.491Z,16.7
2022-09-01T06:34:01.357Z,16.7
2022-09-01T06:35:02.362Z,16.8
2022-09-01T06:36:02.063Z,16.8
2022-09-01T06:37:02.053Z,16.7
2022-09-01T06:38:01.913Z,16.6
2022-09-01T06:39:01.865Z,16.7
2022-09-01T06:40:01.843Z,16.6
2022-09-01T06:41:01.900Z,16.5
2022-09-01T06:42:03.213Z,16.6
2022-09-01T06:43:01.883Z,16.6
2022-09-01T06:44:01.806Z,16.5
2022-09-01T06:45:01.613Z,16.4
2022-09-01T06:46:01.550Z,16.4
2022-09-01T06:47:01.744Z,16.6
2022-09-01T06:48:02.031Z,16.7
2022-09-01T06:49:02.011Z,16.4
2022-09-01T06:50:01.831Z,16.6
2022-09-01T06:51:20.082Z,16.8
2022-09-01T06:52:01.711Z,16.9
2022-09-01T06:54:01.780Z,16.8
2022-09-01T06:55:05.788Z,16.8
2022-09-01T06:56:01.693Z,16.8
2022-09-01T06:58:03.212Z,16.9
2022-09-01T06:58:05.904Z,16.8
2022-09-01T06:59:02.020Z,16.8
2022-09-01T07:00:01.619Z,17.1
2022-09-01T07:01:01.435Z,16.9
2022-09-01T07:02:02.443Z,17
2022-09-01T07:03:01.697Z,17.1
2022-09-01T07:04:01.625Z,17.2
2022-09-01T07:05:01.492Z,17.1
2022-09-01T07:06:02.743Z,17.1
2022-09-01T07:07:54.023Z,17.2
2022-09-01T07:08:05.632Z,17.3
2022-09-01T07:10:21.133Z,17.1
2022-09-01T07:12:25.044Z,17.2
2022-09-01T07:13:05.387Z,17.4
2022-09-01T07:14:16.550Z,17.5
2022-09-01T07:16:33.283Z,17.3
2022-09-01T07:17:23.978Z,17.5
2022-09-01T07:18:01.991Z,17.4
2022-09-01T07:19:01.812Z,17.5
2022-09-01T07:20:23.996Z,17.6
2022-09-01T07:21:03.186Z,17.6
2022-09-01T07:22:07.967Z,17.5
2022-09-01T07:24:11.044Z,17.2
2022-09-01T07:25:13.703Z,17.3
2022-09-01T07:26:02.700Z,17.5
2022-09-01T07:27:08.010Z,17.4
2022-09-01T07:28:01.393Z,17.5
2022-09-01T07:29:01.879Z,17.6
2022-09-01T07:30:01.519Z,17.8
2022-09-01T07:31:48.760Z,17.7
2022-09-01T07:35:01.731Z,17.9
2022-09-01T07:36:29.628Z,18
2022-09-01T07:38:46.800Z,18.1
2022-09-01T07:38:47.190Z,18.2
2022-09-01T07:42:58.507Z,17.4
2022-09-01T07:44:01.954Z,18.7
2022-09-01T07:45:26.545Z,18.7
2022-09-01T07:46:36.549Z,18.9
2022-09-01T07:48:01.638Z,19.1
2022-09-01T07:49:03.060Z,19
2022-09-01T07:50:24.440Z,19.2
2022-09-01T07:52:02.373Z,19.3
2022-09-01T07:53:01.480Z,19.5
2022-09-01T07:54:02.389Z,19.7
2022-09-01T07:55:02.216Z,19.7
2022-09-01T07:56:02.180Z,19.6
2022-09-01T07:57:02.018Z,19.7
2022-09-01T07:58:01.900Z,19.3
2022-09-01T07:59:01.891Z,19.1
2022-09-01T08:00:01.673Z,19.7
2022-09-01T08:01:01.657Z,19.9
2022-09-01T08:02:01.885Z,19.7
2022-09-01T08:03:02.125Z,19.9
2022-09-01T08:04:02.269Z,19.7
2022-09-01T08:05:02.095Z,20.2
2022-09-01T08:06:02.143Z,19.9
2022-09-01T08:07:02.054Z,20
2022-09-01T08:08:01.975Z,20.3
2022-09-01T08:09:01.938Z,19.8
2022-09-01T08:10:02.002Z,20
2022-09-01T08:11:05.220Z,20.1
2022-09-01T08:12:03.063Z,20
2022-09-01T08:13:02.130Z,20.3
2022-09-01T08:14:01.655Z,20.2
2022-09-01T08:16:15.808Z,20.2
2022-09-01T08:17:16.725Z,20.2
2022-09-01T08:18:02.046Z,20.5
2022-09-01T08:19:02.283Z,20.5
2022-09-01T08:20:02.045Z,20.4
2022-09-01T08:21:01.940Z,20.6
2022-09-01T08:22:01.854Z,21
2022-09-01T08:23:01.874Z,21.1
2022-09-01T08:24:01.957Z,20.7
2022-09-01T08:25:01.919Z,21
2022-09-01T08:26:01.760Z,20.8
2022-09-01T08:27:01.679Z,20.9
2022-09-01T08:28:01.642Z,20.5
2022-09-01T08:29:01.575Z,21.2
2022-09-01T08:30:01.478Z,20.1
2022-09-01T08:31:04.559Z,20.1
2022-09-01T08:32:02.038Z,20.4
2022-09-01T08:33:10.073Z,19.9
2022-09-01T08:34:01.687Z,20
2022-09-01T08:35:01.590Z,20.2
2022-09-01T08:36:01.527Z,20.7
2022-09-01T08:37:01.516Z,20.6
2022-09-01T08:38:01.954Z,21.1
2022-09-01T08:39:01.882Z,21.1
2022-09-01T08:40:01.923Z,21.3
2022-09-01T08:41:01.966Z,21.4
2022-09-01T08:42:02.129Z,21.1
2022-09-01T08:43:02.067Z,21
2022-09-01T08:44:01.895Z,21.1
2022-09-01T08:45:01.817Z,21.7
2022-09-01T08:46:01.740Z,21.5
2022-09-01T08:47:01.970Z,21.2
2022-09-01T08:48:36.947Z,21.5
2022-09-01T08:49:26.403Z,21.8
2022-09-01T08:50:01.876Z,21.5
2022-09-01T08:51:01.758Z,21.2
2022-09-01T08:52:01.555Z,21.4
2022-09-01T08:53:08.971Z,21.5
2022-09-01T08:54:01.494Z,21.6
2022-09-01T08:55:01.414Z,21.4
2022-09-01T08:56:02.353Z,21.6
2022-09-01T08:57:02.157Z,22
2022-09-01T08:58:02.257Z,22.4
2022-09-01T08:59:02.641Z,21.7
2022-09-01T09:00:01.586Z,21.8
2022-09-01T09:01:01.545Z,22.7
2022-09-01T09:02:01.551Z,22.5
2022-09-01T09:03:01.658Z,22.7
2022-09-01T09:04:01.647Z,22.5
2022-09-01T09:05:01.643Z,22.8
2022-09-01T09:06:01.732Z,22.9
2022-09-01T09:07:01.690Z,23
2022-09-01T09:08:07.625Z,22.7
2022-09-01T09:09:01.803Z,23
2022-09-01T09:10:01.740Z,22.8
2022-09-01T09:11:01.658Z,22.4
2022-09-01T09:12:01.449Z,23.3
2022-09-01T09:13:02.143Z,23.1
2022-09-01T09:14:02.038Z,23.5
2022-09-01T09:15:01.840Z,23.6
2022-09-01T09:16:08.414Z,23.5
2022-09-01T09:17:01.852Z,22.8
2022-09-01T09:18:01.830Z,23.2
2022-09-01T09:19:01.702Z,23.1
2022-09-01T09:20:01.610Z,22.3
2022-09-01T09:21:01.567Z,22.6
2022-09-01T09:22:01.411Z,23.1
2022-09-01T09:23:02.149Z,23.4
2022-09-01T09:24:01.837Z,23.6
2022-09-01T09:25:01.797Z,23.8
2022-09-01T09:26:01.606Z,23.8
2022-09-01T09:27:01.907Z,23.9
2022-09-01T09:28:01.883Z,23.4
2022-09-01T09:29:01.656Z,24
2022-09-01T09:30:05.852Z,22.9
2022-09-01T09:31:01.450Z,23.7
2022-09-01T09:32:01.942Z,23.7
2022-09-01T09:33:44.646Z,23
2022-09-01T09:34:02.297Z,22.5
2022-09-01T09:35:02.228Z,22.3
2022-09-01T09:36:02.154Z,22.8
2022-09-01T09:37:01.951Z,22.8
2022-09-01T09:38:01.816Z,22.9
2022-09-01T09:39:02.347Z,22.6
2022-09-01T09:40:01.443Z,22.7
2022-09-01T09:41:18.686Z,22.3
2022-09-01T09:42:01.929Z,21.6
2022-09-01T09:43:02.034Z,21.9
2022-09-01T09:44:02.004Z,21.7
2022-09-01T09:45:01.880Z,21.5
2022-09-01T09:46:01.898Z,21.4
2022-09-01T09:47:01.850Z,22
2022-09-01T09:48:01.898Z,22.3
2022-09-01T09:49:01.715Z,22.7
2022-09-01T09:50:02.172Z,23.2
2022-09-01T09:51:02.200Z,22.7
2022-09-01T09:52:02.222Z,22.3
2022-09-01T09:53:02.051Z,22.1
2022-09-01T09:54:02.007Z,22.3
2022-09-01T09:55:01.823Z,22.4
2022-09-01T09:56:01.742Z,22.3
2022-09-01T09:57:01.658Z,21.8
2022-09-01T09:58:01.431Z,21.6
2022-09-01T09:59:02.306Z,21.4
2022-09-01T10:00:02.251Z,21.3
2022-09-01T10:01:03.695Z,20.9
2022-09-01T10:02:02.278Z,20.8
2022-09-01T10:03:01.408Z,20.7
2022-09-01T10:04:01.554Z,20.6
2022-09-01T10:05:02.292Z,20.6
2022-09-01T10:06:01.566Z,20.6
2022-09-01T10:07:01.786Z,20.8
2022-09-01T10:08:01.673Z,20.7
2022-09-01T10:09:01.960Z,20.7
2022-09-01T10:10:01.791Z,20.5
2022-09-01T10:11:01.680Z,20.4
2022-09-01T10:12:01.497Z,21
2022-09-01T10:13:02.137Z,21.7
2022-09-01T10:14:02.268Z,21.9
2022-09-01T10:15:04.619Z,22.5
2022-09-01T10:16:01.574Z,22.2
2022-09-01T10:17:03.663Z,22.7
2022-09-01T10:18:22.047Z,22.9
2022-09-01T10:19:02.205Z,23.3
2022-09-01T10:20:01.616Z,23.3
2022-09-01T10:21:01.673Z,22.9
2022-09-01T10:22:01.558Z,22.8
2022-09-01T10:23:01.438Z,22.1
2022-09-01T10:24:20.350Z,22.4
2022-09-01T10:25:02.229Z,22.6
2022-09-01T10:26:01.448Z,23.1
2022-09-01T10:27:02.092Z,23
2022-09-01T10:28:01.642Z,23
2022-09-01T10:29:01.455Z,23.1
2022-09-01T10:30:18.639Z,22.6
2022-09-01T10:31:02.305Z,22.9
2022-09-01T10:32:28.372Z,22.4
2022-09-01T10:33:07.902Z,22.2
2022-09-01T10:34:02.138Z,22.3
2022-09-01T10:35:02.952Z,21.7
2022-09-01T10:36:02.371Z,22.1
2022-09-01T10:37:01.355Z,22.3
2022-09-01T10:38:02.314Z,22.2
2022-09-01T10:39:06.071Z,22
2022-09-01T10:40:01.993Z,22.9
2022-09-01T10:41:01.648Z,22.7
2022-09-01T10:42:02.089Z,22
2022-09-01T10:43:05.522Z,22.1
2022-09-01T10:44:02.350Z,22.4
2022-09-01T10:45:01.554Z,23.2
2022-09-01T10:46:05.626Z,23.2
2022-09-01T10:47:02.324Z,23
2022-09-01T10:48:02.138Z,23.9
2022-09-01T10:49:03.290Z,24.2
2022-09-01T10:50:02.284Z,24.6
2022-09-01T10:51:01.698Z,24.6
2022-09-01T10:52:04.456Z,23.4
2022-09-01T10:53:01.550Z,22.6
2022-09-01T10:54:02.626Z,23.2
2022-09-01T10:55:01.563Z,23.1
2022-09-01T10:56:01.965Z,22.5
2022-09-01T10:57:03.851Z,22.6
2022-09-01T10:58:08.596Z,22.6
2022-09-01T10:59:31.997Z,22.4
2022-09-01T11:00:02.407Z,22.2
2022-09-01T11:01:14.338Z,22.4
2022-09-01T11:02:26.662Z,22.6
2022-09-01T11:03:29.548Z,22.2
2022-09-01T11:04:01.642Z,22.1
2022-09-01T11:05:01.727Z,22
2022-09-01T11:06:12.264Z,22.3
2022-09-01T11:07:14.405Z,22
2022-09-01T11:08:01.937Z,22.8
2022-09-01T11:09:01.396Z,23.2
2022-09-01T11:10:10.943Z,23.4
2022-09-01T11:11:02.134Z,23.3
2022-09-01T11:12:02.084Z,22.8
2022-09-01T11:13:02.396Z,22.6
2022-09-01T11:14:01.682Z,22.5
2022-09-01T11:15:01.672Z,22.6
2022-09-01T11:16:01.492Z,22.3
2022-09-01T11:17:01.469Z,22.5
2022-09-01T11:18:01.555Z,22.9
2022-09-01T11:19:01.357Z,23.1
2022-09-01T11:20:02.337Z,22.5
2022-09-01T11:21:02.131Z,22.7
2022-09-01T11:22:02.526Z,22.5
2022-09-01T11:23:01.682Z,22.4
2022-09-01T11:24:02.285Z,22.4
2022-09-01T11:25:02.459Z,23.2
2022-09-01T11:26:21.153Z,23.5
2022-09-01T11:27:02.283Z,23.6
2022-09-01T11:28:02.349Z,23.5
2022-09-01T11:29:02.162Z,23.9
2022-09-01T11:30:02.143Z,24.4
2022-09-01T11:31:01.978Z,23.9
2022-09-01T11:32:01.638Z,24.3
2022-09-01T11:33:01.997Z,24.1
2022-09-01T11:34:01.960Z,23.9
2022-09-01T11:35:02.352Z,24
2022-09-01T11:36:02.227Z,24.6
2022-09-01T11:37:01.508Z,24.9
2022-09-01T11:38:01.451Z,24.7
2022-09-01T11:39:02.082Z,24.9
2022-09-01T11:40:02.228Z,24.6
2022-09-01T11:41:01.498Z,25.1
2022-09-01T11:42:04.196Z,25.6
2022-09-01T11:43:01.429Z,25
2022-09-01T11:44:01.765Z,24.4
2022-09-01T11:45:01.663Z,24.4
2022-09-01T11:46:01.739Z,24.5
2022-09-01T11:47:01.637Z,24.4
2022-09-01T11:48:01.907Z,24.2
2022-09-01T11:49:01.829Z,24
2022-09-01T11:50:01.642Z,23.4
2022-09-01T11:51:01.606Z,23.3
2022-09-01T11:52:01.457Z,23.1
2022-09-01T11:53:05.173Z,23
2022-09-01T11:54:01.490Z,23.2
2022-09-01T11:55:02.528Z,23.9
2022-09-01T11:56:01.378Z,24.3
2022-09-01T11:57:02.346Z,24.6
2022-09-01T11:58:02.150Z,24.5
2022-09-01T11:59:02.141Z,24.8
2022-09-01T12:00:01.984Z,25.1
2022-09-01T12:01:01.851Z,25
2022-09-01T12:02:01.676Z,24.9
2022-09-01T12:03:02.007Z,24.9
2022-09-01T12:04:01.417Z,25.3
2022-09-01T12:05:02.347Z,25
2022-09-01T12:06:02.163Z,25.3
2022-09-01T12:07:02.131Z,25
2022-09-01T12:08:01.954Z,24.7
2022-09-01T12:09:01.833Z,24.6
2022-09-01T12:10:01.728Z,24.1
2022-09-01T12:11:01.542Z,24
2022-09-01T12:12:01.529Z,23.9
2022-09-01T12:13:01.348Z,23.7
2022-09-01T12:14:02.333Z,23.6
2022-09-01T12:15:05.917Z,23.4
2022-09-01T12:16:17.297Z,23.5
2022-09-01T12:17:01.996Z,23.4
2022-09-01T12:18:02.253Z,23.3
2022-09-01T12:19:02.041Z,23.3
2022-09-01T12:20:01.986Z,23.4
2022-09-01T12:21:01.816Z,23
2022-09-01T12:22:01.738Z,23.1
2022-09-01T12:23:02.036Z,23.1
2022-09-01T12:24:01.895Z,22.8
2022-09-01T12:25:01.796Z,23
2022-09-01T12:26:01.783Z,22.9
2022-09-01T12:27:01.616Z,22.8
2022-09-01T12:28:01.517Z,22.6
2022-09-01T12:29:02.420Z,22.9
2022-09-01T12:30:02.220Z,23.2
2022-09-01T12:31:02.316Z,23.4
2022-09-01T12:32:01.573Z,23.1
2022-09-01T12:33:24.471Z,23.3
2022-09-01T12:34:01.566Z,23.2
2022-09-01T12:35:03.160Z,23.4
2022-09-01T12:36:02.365Z,23.2
2022-09-01T12:37:02.192Z,23.4
2022-09-01T12:38:03.047Z,22.8
2022-09-01T12:39:01.946Z,22.5
2022-09-01T12:40:01.903Z,22.5
2022-09-01T12:41:01.980Z,23.2
2022-09-01T12:42:01.856Z,23.7
2022-09-01T12:43:01.777Z,23.4
2022-09-01T12:44:01.716Z,23.9
2022-09-01T12:45:01.478Z,23.6
2022-09-01T12:46:02.803Z,24.2
2022-09-01T12:47:01.740Z,24.6
2022-09-01T12:48:01.645Z,24.6
2022-09-01T12:49:01.577Z,24.1
2022-09-01T12:50:03.339Z,24.6
2022-09-01T12:51:01.762Z,25.1
2022-09-01T12:52:01.745Z,24.8
2022-09-01T12:53:02.053Z,24.6
2022-09-01T12:54:04.562Z,24.6
2022-09-01T12:55:01.954Z,24.3
2022-09-01T12:56:01.921Z,23.8
2022-09-01T12:57:01.732Z,23.5
2022-09-01T12:58:01.731Z,23.7
2022-09-01T12:59:01.553Z,24
2022-09-01T13:00:01.533Z,23.9
2022-09-01T13:01:01.604Z,23.8
2022-09-01T13:02:01.721Z,23.7
2022-09-01T13:03:01.995Z,23.5
2022-09-01T13:04:01.845Z,23.4
2022-09-01T13:05:01.731Z,22.7
2022-09-01T13:06:01.702Z,22.8
2022-09-01T13:07:01.533Z,22.8
2022-09-01T13:08:01.508Z,23
2022-09-01T13:09:02.417Z,23.8
2022-09-01T13:10:02.228Z,23.9
2022-09-01T13:11:02.191Z,23.8
2022-09-01T13:12:06.421Z,24.3
2022-09-01T13:13:01.743Z,23.8
2022-09-01T13:14:01.661Z,24.1
2022-09-01T13:15:01.489Z,24.3
2022-09-01T13:16:01.648Z,23.9
2022-09-01T13:17:01.741Z,23.6
2022-09-01T13:18:01.664Z,24.1
2022-09-01T13:19:13.679Z,23.9
2022-09-01T13:20:02.074Z,23.7
2022-09-01T13:21:02.010Z,23.2
2022-09-01T13:22:02.012Z,23.4
2022-09-01T13:23:01.792Z,22.9
2022-09-01T13:24:01.742Z,23.9
2022-09-01T13:25:01.901Z,23.7
2022-09-01T13:26:01.724Z,24.4
2022-09-01T13:27:23.352Z,24.3
2022-09-01T13:28:01.936Z,24.1
2022-09-01T13:29:01.853Z,24.5
2022-09-01T13:30:01.741Z,25
2022-09-01T13:31:30.864Z,24.5
2022-09-01T13:32:18.667Z,24.8
2022-09-01T13:33:23.197Z,24.4
2022-09-01T13:34:10.530Z,24.4
2022-09-01T13:35:01.882Z,23.9
2022-09-01T13:36:01.756Z,23.3
2022-09-01T13:37:01.808Z,23.2
2022-09-01T13:38:01.748Z,23.2